sensor_id;sensor_type;location;lat;lon;timestamp;pressure;altitude;pressure_sealevel;temperature;humidity
3812;BME280;1921;49.368;11.068;2023-04-01T00:00:30;96181.78;;;9.25;91.43
3812;BME280;1921;49.368;11.068;2023-04-01T00:02:56;96208.34;;;9.53;90.69
3812;BME280;1921;49.368;11.068;2023-04-01T00:05:22;96234.09;;;9.68;90.60
3812;BME280;1921;49.368;11.068;2023-04-01T00:07:49;96219.53;;;9.54;90.02
3812;BME280;1921;49.368;11.068;2023-04-01T00:10:16;96189.41;;;9.26;90.60
3812;BME280;1921;49.368;11.068;2023-04-01T00:12:42;96193.97;;;9.31;89.87
3812;BME280;1921;49.368;11.068;2023-04-01T00:15:10;96197.38;;;9.31;89.71
3812;BME280;1921;49.368;11.068;2023-04-01T00:17:36;96214.38;;;9.47;89.45
3812;BME280;1921;49.368;11.068;2023-04-01T00:20:03;96228.56;;;9.58;89.57
3812;BME280;1921;49.368;11.068;2023-04-01T00:22:29;96214.53;;;9.59;88.31
3812;BME280;1921;49.368;11.068;2023-04-01T00:24:55;96237.69;;;9.74;87.66
3812;BME280;1921;49.368;11.068;2023-04-01T00:27:20;96207.78;;;9.31;89.47
3812;BME280;1921;49.368;11.068;2023-04-01T00:29:47;96238.94;;;9.64;88.28
3812;BME280;1921;49.368;11.068;2023-04-01T00:32:13;96195.34;;;9.47;87.06
3812;BME280;1921;49.368;11.068;2023-04-01T00:34:39;96207.34;;;9.54;86.95
3812;BME280;1921;49.368;11.068;2023-04-01T00:37:06;96160.59;;;9.21;87.14
3812;BME280;1921;49.368;11.068;2023-04-01T00:39:33;96245.31;;;9.75;87.01
3812;BME280;1921;49.368;11.068;2023-04-01T00:42:01;96232.31;;;9.62;87.15
3812;BME280;1921;49.368;11.068;2023-04-01T00:44:30;96179.75;;;9.40;86.67
3812;BME280;1921;49.368;11.068;2023-04-01T00:46:57;96175.91;;;9.49;86.22
3812;BME280;1921;49.368;11.068;2023-04-01T00:49:28;96246.09;;;9.82;86.77
3812;BME280;1921;49.368;11.068;2023-04-01T00:51:57;96226.31;;;9.68;86.08
3812;BME280;1921;49.368;11.068;2023-04-01T00:54:25;96191.56;;;9.42;86.56
3812;BME280;1921;49.368;11.068;2023-04-01T00:57:05;96247.31;;;9.73;86.88
3812;BME280;1921;49.368;11.068;2023-04-01T00:59:39;96186.97;;;9.38;86.10
3812;BME280;1921;49.368;11.068;2023-04-01T01:02:09;96249.09;;;9.79;86.47
3812;BME280;1921;49.368;11.068;2023-04-01T01:04:36;96229.88;;;9.74;85.91
3812;BME280;1921;49.368;11.068;2023-04-01T01:10:02;96224.72;;;9.67;84.88
3812;BME280;1921;49.368;11.068;2023-04-01T01:15:21;96209.31;;;9.59;84.78
3812;BME280;1921;49.368;11.068;2023-04-01T01:24:17;96236.47;;;9.89;84.18
3812;BME280;1921;49.368;11.068;2023-04-01T01:30:04;96187.75;;;9.52;84.01
3812;BME280;1921;49.368;11.068;2023-04-01T01:35:30;96214.25;;;9.80;81.83
3812;BME280;1921;49.368;11.068;2023-04-01T01:38:10;96192.44;;;9.75;82.87
3812;BME280;1921;49.368;11.068;2023-04-01T01:40:39;96177.50;;;9.63;82.94
3812;BME280;1921;49.368;11.068;2023-04-01T01:43:11;96222.25;;;9.85;82.82
3812;BME280;1921;49.368;11.068;2023-04-01T01:45:44;96177.63;;;9.68;82.32
3812;BME280;1921;49.368;11.068;2023-04-01T01:48:11;96216.22;;;9.91;83.02
3812;BME280;1921;49.368;11.068;2023-04-01T01:50:39;96196.84;;;9.74;83.25
3812;BME280;1921;49.368;11.068;2023-04-01T01:53:10;96159.72;;;9.47;82.88
3812;BME280;1921;49.368;11.068;2023-04-01T01:55:39;96167.72;;;9.52;82.18
3812;BME280;1921;49.368;11.068;2023-04-01T01:58:40;96166.50;;;9.55;82.34
3812;BME280;1921;49.368;11.068;2023-04-01T02:01:27;96181.31;;;9.54;82.57
3812;BME280;1921;49.368;11.068;2023-04-01T02:03:54;96188.31;;;9.54;82.95
3812;BME280;1921;49.368;11.068;2023-04-01T02:06:26;96145.19;;;9.26;82.33
3812;BME280;1921;49.368;11.068;2023-04-01T02:09:00;96204.09;;;9.65;83.37
3812;BME280;1921;49.368;11.068;2023-04-01T02:11:57;96115.22;;;9.04;82.87
3812;BME280;1921;49.368;11.068;2023-04-01T02:14:47;96178.97;;;9.39;84.21
3812;BME280;1921;49.368;11.068;2023-04-01T02:17:24;96171.19;;;9.33;82.96
3812;BME280;1921;49.368;11.068;2023-04-01T02:19:58;96191.16;;;9.46;83.33
3812;BME280;1921;49.368;11.068;2023-04-01T02:22:32;96181.19;;;9.29;83.95
3812;BME280;1921;49.368;11.068;2023-04-01T02:25:06;96221.50;;;9.71;83.26
3812;BME280;1921;49.368;11.068;2023-04-01T02:27:32;96190.91;;;9.54;82.50
3812;BME280;1921;49.368;11.068;2023-04-01T02:29:58;96196.50;;;9.64;83.25
3812;BME280;1921;49.368;11.068;2023-04-01T02:32:25;96207.88;;;9.76;82.84
3812;BME280;1921;49.368;11.068;2023-04-01T02:34:52;96189.53;;;9.58;82.52
3812;BME280;1921;49.368;11.068;2023-04-01T02:37:18;96198.75;;;9.47;83.83
3812;BME280;1921;49.368;11.068;2023-04-01T02:39:44;96201.72;;;9.57;83.00
3812;BME280;1921;49.368;11.068;2023-04-01T02:42:10;96229.91;;;9.67;82.51
3812;BME280;1921;49.368;11.068;2023-04-01T02:44:36;96167.16;;;9.37;82.77
3812;BME280;1921;49.368;11.068;2023-04-01T02:47:02;96101.66;;;8.82;82.33
3812;BME280;1921;49.368;11.068;2023-04-01T02:49:27;96186.97;;;9.38;82.37
3812;BME280;1921;49.368;11.068;2023-04-01T02:51:53;96211.56;;;9.49;82.67
3812;BME280;1921;49.368;11.068;2023-04-01T02:54:19;96182.59;;;9.32;83.17
3812;BME280;1921;49.368;11.068;2023-04-01T02:56:45;96194.63;;;9.20;83.97
3812;BME280;1921;49.368;11.068;2023-04-01T02:59:11;96179.84;;;9.07;84.24
3812;BME280;1921;49.368;11.068;2023-04-01T03:01:37;96201.22;;;9.22;84.20
3812;BME280;1921;49.368;11.068;2023-04-01T03:04:04;96183.03;;;9.15;84.81
3812;BME280;1921;49.368;11.068;2023-04-01T03:06:30;96253.16;;;9.55;84.51
3812;BME280;1921;49.368;11.068;2023-04-01T03:08:55;96243.97;;;9.59;84.61
3812;BME280;1921;49.368;11.068;2023-04-01T03:11:21;96193.59;;;9.34;83.87
3812;BME280;1921;49.368;11.068;2023-04-01T03:13:47;96186.97;;;9.31;84.05
3812;BME280;1921;49.368;11.068;2023-04-01T03:16:14;96207.19;;;9.29;84.10
3812;BME280;1921;49.368;11.068;2023-04-01T03:18:40;96209.59;;;9.44;84.61
3812;BME280;1921;49.368;11.068;2023-04-01T03:21:18;96185.81;;;9.27;84.19
3812;BME280;1921;49.368;11.068;2023-04-01T03:23:44;96192.81;;;9.27;83.98
3812;BME280;1921;49.368;11.068;2023-04-01T03:26:10;96195.59;;;9.38;84.07
3812;BME280;1921;49.368;11.068;2023-04-01T03:28:36;96174.38;;;9.28;83.63
3812;BME280;1921;49.368;11.068;2023-04-01T03:31:02;96242.56;;;9.50;83.49
3812;BME280;1921;49.368;11.068;2023-04-01T03:33:27;96225.78;;;9.46;84.01
3812;BME280;1921;49.368;11.068;2023-04-01T03:35:53;96271.94;;;9.77;84.21
3812;BME280;1921;49.368;11.068;2023-04-01T03:38:19;96248.91;;;9.74;83.51
3812;BME280;1921;49.368;11.068;2023-04-01T03:40:45;96214.13;;;9.55;83.46
3812;BME280;1921;49.368;11.068;2023-04-01T03:43:11;96244.53;;;9.68;83.24
3812;BME280;1921;49.368;11.068;2023-04-01T03:45:49;96224.53;;;9.55;83.28
3812;BME280;1921;49.368;11.068;2023-04-01T03:48:15;96221.38;;;9.47;83.46
3812;BME280;1921;49.368;11.068;2023-04-01T03:50:41;96218.56;;;9.48;83.53
3812;BME280;1921;49.368;11.068;2023-04-01T03:53:07;96247.97;;;9.55;82.95
3812;BME280;1921;49.368;11.068;2023-04-01T03:55:34;96240.38;;;9.47;83.20
3812;BME280;1921;49.368;11.068;2023-04-01T03:58:00;96267.38;;;9.66;82.48
3812;BME280;1921;49.368;11.068;2023-04-01T04:00:30;96239.78;;;9.52;82.91
3812;BME280;1921;49.368;11.068;2023-04-01T04:02:57;96199.97;;;9.31;82.42
3812;BME280;1921;49.368;11.068;2023-04-01T04:05:23;96252.72;;;9.71;82.38
3812;BME280;1921;49.368;11.068;2023-04-01T04:07:50;96239.97;;;9.63;80.70
3812;BME280;1921;49.368;11.068;2023-04-01T04:10:16;96245.34;;;9.62;81.54
3812;BME280;1921;49.368;11.068;2023-04-01T04:12:42;96240.59;;;9.52;81.97
3812;BME280;1921;49.368;11.068;2023-04-01T04:15:08;96288.94;;;9.80;82.15
3812;BME280;1921;49.368;11.068;2023-04-01T04:17:34;96222.59;;;9.44;81.45
3812;BME280;1921;49.368;11.068;2023-04-01T04:20:01;96232.81;;;9.39;82.49
3812;BME280;1921;49.368;11.068;2023-04-01T04:22:27;96290.16;;;9.77;82.83
3812;BME280;1921;49.368;11.068;2023-04-01T04:24:53;96240.94;;;9.56;83.04
3812;BME280;1921;49.368;11.068;2023-04-01T04:27:18;96216.16;;;9.47;82.80
3812;BME280;1921;49.368;11.068;2023-04-01T04:29:44;96201.19;;;9.35;83.54
3812;BME280;1921;49.368;11.068;2023-04-01T04:32:10;96228.94;;;9.55;83.59
3812;BME280;1921;49.368;11.068;2023-04-01T04:34:36;96244.56;;;9.55;83.13
3812;BME280;1921;49.368;11.068;2023-04-01T04:37:02;96238.38;;;9.42;83.33
3812;BME280;1921;49.368;11.068;2023-04-01T04:39:27;96168.88;;;8.85;84.19
3812;BME280;1921;49.368;11.068;2023-04-01T04:41:53;96244.00;;;9.39;84.08
3812;BME280;1921;49.368;11.068;2023-04-01T04:44:19;96248.59;;;9.37;84.56
3812;BME280;1921;49.368;11.068;2023-04-01T04:46:45;96244.81;;;9.33;84.44
3812;BME280;1921;49.368;11.068;2023-04-01T04:49:10;96256.22;;;9.39;84.78
3812;BME280;1921;49.368;11.068;2023-04-01T04:51:36;96250.00;;;9.40;84.75
3812;BME280;1921;49.368;11.068;2023-04-01T04:54:03;96265.41;;;9.48;84.51
3812;BME280;1921;49.368;11.068;2023-04-01T04:56:29;96223.63;;;9.10;85.09
3812;BME280;1921;49.368;11.068;2023-04-01T04:58:56;96227.03;;;9.17;85.10
3812;BME280;1921;49.368;11.068;2023-04-01T05:01:22;96227.03;;;9.17;85.23
3812;BME280;1921;49.368;11.068;2023-04-01T05:03:48;96257.22;;;9.25;85.33
3812;BME280;1921;49.368;11.068;2023-04-01T05:06:16;96251.22;;;9.24;85.59
3812;BME280;1921;49.368;11.068;2023-04-01T05:08:43;96237.66;;;9.09;85.87
3812;BME280;1921;49.368;11.068;2023-04-01T05:11:13;96230.22;;;9.12;85.36
3812;BME280;1921;49.368;11.068;2023-04-01T05:13:40;96254.84;;;9.23;85.29
3812;BME280;1921;49.368;11.068;2023-04-01T05:16:11;96223.25;;;9.00;86.18
3812;BME280;1921;49.368;11.068;2023-04-01T05:18:37;96233.44;;;9.08;85.91
3812;BME280;1921;49.368;11.068;2023-04-01T05:21:03;96269.22;;;9.12;85.98
3812;BME280;1921;49.368;11.068;2023-04-01T05:23:31;96263.06;;;9.20;86.48
3812;BME280;1921;49.368;11.068;2023-04-01T05:25:57;96236.22;;;9.06;85.10
3812;BME280;1921;49.368;11.068;2023-04-01T05:28:23;96281.44;;;9.32;85.20
3812;BME280;1921;49.368;11.068;2023-04-01T05:30:48;96234.03;;;9.16;85.20
3812;BME280;1921;49.368;11.068;2023-04-01T05:33:15;96262.03;;;9.34;84.63
3812;BME280;1921;49.368;11.068;2023-04-01T05:35:41;96263.81;;;9.47;84.08
3812;BME280;1921;49.368;11.068;2023-04-01T05:38:07;96238.41;;;9.36;84.37
3812;BME280;1921;49.368;11.068;2023-04-01T05:40:33;96286.97;;;9.68;84.30
3812;BME280;1921;49.368;11.068;2023-04-01T05:42:59;96222.97;;;9.48;82.99
3812;BME280;1921;49.368;11.068;2023-04-01T05:45:26;96284.72;;;9.92;83.29
3812;BME280;1921;49.368;11.068;2023-04-01T05:47:52;96260.56;;;9.65;82.09
3812;BME280;1921;49.368;11.068;2023-04-01T05:50:18;96273.56;;;9.65;82.43
3812;BME280;1921;49.368;11.068;2023-04-01T05:52:44;96258.16;;;9.70;82.50
3812;BME280;1921;49.368;11.068;2023-04-01T05:55:10;96280.94;;;9.81;81.03
3812;BME280;1921;49.368;11.068;2023-04-01T05:57:36;96277.50;;;9.94;81.09
3812;BME280;1921;49.368;11.068;2023-04-01T06:00:03;96232.72;;;9.72;80.17
3812;BME280;1921;49.368;11.068;2023-04-01T06:02:29;96280.88;;;10.01;80.17
3812;BME280;1921;49.368;11.068;2023-04-01T06:05:14;96235.50;;;9.77;80.44
3812;BME280;1921;49.368;11.068;2023-04-01T06:07:42;96260.88;;;9.95;79.48
3812;BME280;1921;49.368;11.068;2023-04-01T06:19:17;96283.63;;;10.19;78.95
3812;BME280;1921;49.368;11.068;2023-04-01T06:22:04;96254.38;;;10.11;79.14
3812;BME280;1921;49.368;11.068;2023-04-01T06:25:18;96253.09;;;10.33;77.35
3812;BME280;1921;49.368;11.068;2023-04-01T06:42:17;96289.97;;;10.75;74.37
3812;BME280;1921;49.368;11.068;2023-04-01T06:48:29;96277.06;;;10.80;72.44
3812;BME280;1921;49.368;11.068;2023-04-01T06:53:56;96283.06;;;10.81;73.64
3812;BME280;1921;49.368;11.068;2023-04-01T06:56:28;96263.41;;;10.85;72.22
3812;BME280;1921;49.368;11.068;2023-04-01T06:59:22;96259.38;;;11.14;71.45
3812;BME280;1921;49.368;11.068;2023-04-01T07:01:54;96247.28;;;10.94;70.67
3812;BME280;1921;49.368;11.068;2023-04-01T07:04:35;96228.28;;;10.87;70.33
3812;BME280;1921;49.368;11.068;2023-04-01T07:07:29;96288.38;;;11.24;69.11
3812;BME280;1921;49.368;11.068;2023-04-01T07:09:59;96273.00;;;11.16;69.69
3812;BME280;1921;49.368;11.068;2023-04-01T07:12:43;96252.66;;;11.24;68.36
3812;BME280;1921;49.368;11.068;2023-04-01T07:17:48;96226.53;;;11.49;67.77
3812;BME280;1921;49.368;11.068;2023-04-01T07:20:25;96276.75;;;12.06;66.72
3812;BME280;1921;49.368;11.068;2023-04-01T07:22:59;96264.69;;;12.24;66.32
3812;BME280;1921;49.368;11.068;2023-04-01T07:25:34;96236.31;;;11.91;65.97
3812;BME280;1921;49.368;11.068;2023-04-01T07:28:14;96218.94;;;11.78;65.96
3812;BME280;1921;49.368;11.068;2023-04-01T07:31:15;96254.97;;;11.94;65.44
3812;BME280;1921;49.368;11.068;2023-04-01T07:33:59;96183.00;;;11.62;65.87
3812;BME280;1921;49.368;11.068;2023-04-01T07:36:43;96219.28;;;11.88;65.31
3812;BME280;1921;49.368;11.068;2023-04-01T07:42:46;96258.72;;;12.17;64.90
3812;BME280;1921;49.368;11.068;2023-04-01T07:45:44;96238.13;;;12.08;64.39
3812;BME280;1921;49.368;11.068;2023-04-01T07:54:38;96284.69;;;12.30;65.60
3812;BME280;1921;49.368;11.068;2023-04-01T08:06:19;96270.91;;;12.04;64.28
3812;BME280;1921;49.368;11.068;2023-04-01T08:09:15;96291.28;;;12.32;62.54
3812;BME280;1921;49.368;11.068;2023-04-01T08:15:46;96249.00;;;12.24;61.82
3812;BME280;1921;49.368;11.068;2023-04-01T08:18:51;96293.31;;;12.60;61.15
3812;BME280;1921;49.368;11.068;2023-04-01T08:21:38;96262.00;;;12.42;60.82
3812;BME280;1921;49.368;11.068;2023-04-01T08:24:41;96249.78;;;12.66;61.05
3812;BME280;1921;49.368;11.068;2023-04-01T08:27:35;96288.97;;;12.54;61.38
3812;BME280;1921;49.368;11.068;2023-04-01T08:30:20;96268.13;;;12.36;61.36
3812;BME280;1921;49.368;11.068;2023-04-01T08:33:15;96278.41;;;12.49;60.46
3812;BME280;1921;49.368;11.068;2023-04-01T08:38:32;96179.22;;;11.94;61.41
3812;BME280;1921;49.368;11.068;2023-04-01T08:49:52;96292.03;;;12.81;60.11
3812;BME280;1921;49.368;11.068;2023-04-01T08:52:36;96282.88;;;13.02;59.62
3812;BME280;1921;49.368;11.068;2023-04-01T09:00:56;96285.66;;;13.66;57.11
3812;BME280;1921;49.368;11.068;2023-04-01T09:09:50;96194.31;;;12.76;58.41
3812;BME280;1921;49.368;11.068;2023-04-01T09:15:30;96290.78;;;12.84;61.61
3812;BME280;1921;49.368;11.068;2023-04-01T09:21:17;96295.53;;;12.15;66.49
3812;BME280;1921;49.368;11.068;2023-04-01T09:30:18;96232.56;;;12.47;62.90
3812;BME280;1921;49.368;11.068;2023-04-01T09:39:06;96293.63;;;12.82;66.01
3812;BME280;1921;49.368;11.068;2023-04-01T09:42:33;96268.97;;;12.90;64.21
3812;BME280;1921;49.368;11.068;2023-04-01T09:45:29;96281.97;;;13.20;63.51
3812;BME280;1921;49.368;11.068;2023-04-01T10:12:52;96308.44;;;12.28;73.17
3812;BME280;1921;49.368;11.068;2023-04-01T10:15:55;96290.03;;;11.80;77.17
3812;BME280;1921;49.368;11.068;2023-04-01T10:23:50;96305.41;;;11.51;85.54
3812;BME280;1921;49.368;11.068;2023-04-01T10:30:03;96290.47;;;11.15;90.34
3812;BME280;1921;49.368;11.068;2023-04-01T10:32:42;96270.50;;;11.02;89.43
3812;BME280;1921;49.368;11.068;2023-04-01T10:38:40;96307.88;;;11.46;90.63
3812;BME280;1921;49.368;11.068;2023-04-01T10:41:37;96261.66;;;11.47;91.12
3812;BME280;1921;49.368;11.068;2023-04-01T10:48:07;96298.94;;;11.54;88.32
3812;BME280;1921;49.368;11.068;2023-04-01T10:53:40;96299.94;;;11.10;93.64
3812;BME280;1921;49.368;11.068;2023-04-01T10:59:51;96290.63;;;10.95;95.46
3812;BME280;1921;49.368;11.068;2023-04-01T11:03:08;96298.44;;;10.95;95.22
3812;BME280;1921;49.368;11.068;2023-04-01T11:12:09;96274.78;;;10.90;94.94
3812;BME280;1921;49.368;11.068;2023-04-01T11:18:24;96298.94;;;10.79;97.29
3812;BME280;1921;49.368;11.068;2023-04-01T11:21:59;96313.13;;;10.58;98.75
3812;BME280;1921;49.368;11.068;2023-04-01T11:24:59;96272.75;;;10.22;98.61
3812;BME280;1921;49.368;11.068;2023-04-01T11:30:49;96288.72;;;10.46;98.60
3812;BME280;1921;49.368;11.068;2023-04-01T11:39:38;96256.50;;;10.34;97.67
3812;BME280;1921;49.368;11.068;2023-04-01T11:45:50;96251.41;;;10.52;96.63
3812;BME280;1921;49.368;11.068;2023-04-01T11:48:38;96246.72;;;10.61;97.12
3812;BME280;1921;49.368;11.068;2023-04-01T11:51:39;96316.09;;;11.25;95.64
3812;BME280;1921;49.368;11.068;2023-04-01T11:57:51;96315.88;;;11.26;93.77
3812;BME280;1921;49.368;11.068;2023-04-01T12:09:36;96315.19;;;11.13;95.82
3812;BME280;1921;49.368;11.068;2023-04-01T12:12:20;96315.47;;;11.23;95.47
3812;BME280;1921;49.368;11.068;2023-04-01T12:15:14;96321.59;;;11.35;96.15
3812;BME280;1921;49.368;11.068;2023-04-01T12:18:03;96310.81;;;11.31;94.42
3812;BME280;1921;49.368;11.068;2023-04-01T12:20:55;96323.69;;;11.51;96.93
3812;BME280;1921;49.368;11.068;2023-04-01T12:24:29;96318.13;;;11.41;94.27
3812;BME280;1921;49.368;11.068;2023-04-01T12:33:36;96323.13;;;11.43;93.71
3812;BME280;1921;49.368;11.068;2023-04-01T12:39:22;96326.19;;;11.40;94.38
3812;BME280;1921;49.368;11.068;2023-04-01T12:45:27;96330.19;;;10.86;95.74
3812;BME280;1921;49.368;11.068;2023-04-01T12:48:42;96308.88;;;10.64;96.48
3812;BME280;1921;49.368;11.068;2023-04-01T12:51:47;96320.84;;;10.71;97.00
3812;BME280;1921;49.368;11.068;2023-04-01T12:58:10;96337.47;;;10.77;98.77
3812;BME280;1921;49.368;11.068;2023-04-01T13:01:10;96313.03;;;10.71;98.44
3812;BME280;1921;49.368;11.068;2023-04-01T13:13:21;96333.56;;;10.93;96.93
3812;BME280;1921;49.368;11.068;2023-04-01T13:16:29;96305.22;;;10.71;98.13
3812;BME280;1921;49.368;11.068;2023-04-01T13:19:25;96302.69;;;10.58;95.76
3812;BME280;1921;49.368;11.068;2023-04-01T13:25:15;96323.25;;;11.04;95.54
3812;BME280;1921;49.368;11.068;2023-04-01T13:27:52;96336.25;;;11.11;95.45
3812;BME280;1921;49.368;11.068;2023-04-01T13:33:49;96313.47;;;11.00;94.24
3812;BME280;1921;49.368;11.068;2023-04-01T13:42:35;96340.53;;;11.05;92.49
3812;BME280;1921;49.368;11.068;2023-04-01T13:45:19;96306.09;;;10.90;93.59
3812;BME280;1921;49.368;11.068;2023-04-01T14:00:02;96301.91;;;11.39;90.11
3812;BME280;1921;49.368;11.068;2023-04-01T14:02:51;96303.13;;;11.62;87.54
3812;BME280;1921;49.368;11.068;2023-04-01T14:06:04;96341.03;;;12.26;84.25
3812;BME280;1921;49.368;11.068;2023-04-01T14:23:17;96297.78;;;12.11;79.59
3812;BME280;1921;49.368;11.068;2023-04-01T14:26:17;96301.16;;;11.75;81.88
3812;BME280;1921;49.368;11.068;2023-04-01T14:34:56;96299.66;;;10.61;88.33
3812;BME280;1921;49.368;11.068;2023-04-01T14:44:13;96365.22;;;10.65;91.44
3812;BME280;1921;49.368;11.068;2023-04-01T14:49:53;96368.09;;;10.50;89.85
3812;BME280;1921;49.368;11.068;2023-04-01T14:52:33;96359.34;;;10.24;89.95
3812;BME280;1921;49.368;11.068;2023-04-01T14:55:19;96228.94;;;9.61;91.12
3812;BME280;1921;49.368;11.068;2023-04-01T15:00:57;96324.59;;;10.50;88.19
3812;BME280;1921;49.368;11.068;2023-04-01T15:04:09;96362.03;;;10.63;86.68
3812;BME280;1921;49.368;11.068;2023-04-01T15:12:48;96370.09;;;10.86;87.36
3812;BME280;1921;49.368;11.068;2023-04-01T15:21:49;96347.22;;;11.20;83.66
3812;BME280;1921;49.368;11.068;2023-04-01T15:53:47;96327.88;;;11.02;80.26
3812;BME280;1921;49.368;11.068;2023-04-01T16:00:09;96413.03;;;11.53;81.33
3812;BME280;1921;49.368;11.068;2023-04-01T16:09:19;96371.78;;;11.12;78.47
3812;BME280;1921;49.368;11.068;2023-04-01T16:12:15;96424.16;;;11.42;80.62
3812;BME280;1921;49.368;11.068;2023-04-01T16:20:57;96367.72;;;10.85;80.08
3812;BME280;1921;49.368;11.068;2023-04-01T16:23:39;96407.13;;;11.08;80.12
3812;BME280;1921;49.368;11.068;2023-04-01T16:28:54;96433.34;;;11.20;80.93
3812;BME280;1921;49.368;11.068;2023-04-01T16:31:46;96433.34;;;11.20;79.89
3812;BME280;1921;49.368;11.068;2023-04-01T16:34:25;96380.41;;;10.81;80.84
3812;BME280;1921;49.368;11.068;2023-04-01T16:37:21;96387.19;;;10.82;80.75
3812;BME280;1921;49.368;11.068;2023-04-01T16:46:28;96447.09;;;11.02;81.99
3812;BME280;1921;49.368;11.068;2023-04-01T17:02:16;96446.94;;;10.90;83.28
3812;BME280;1921;49.368;11.068;2023-04-01T17:10:56;96396.53;;;10.58;82.45
3812;BME280;1921;49.368;11.068;2023-04-01T17:22:21;96472.94;;;10.59;83.50
3812;BME280;1921;49.368;11.068;2023-04-01T17:25:14;96487.16;;;10.69;83.42
3812;BME280;1921;49.368;11.068;2023-04-01T17:31:21;96494.75;;;10.71;83.29
3812;BME280;1921;49.368;11.068;2023-04-01T17:34:15;96490.78;;;10.68;83.68
3812;BME280;1921;49.368;11.068;2023-04-01T17:40:00;96494.53;;;10.79;82.50
3812;BME280;1921;49.368;11.068;2023-04-01T17:42:49;96464.13;;;10.53;82.95
3812;BME280;1921;49.368;11.068;2023-04-01T17:45:37;96507.97;;;10.83;82.56
3812;BME280;1921;49.368;11.068;2023-04-01T17:53:43;96503.56;;;10.76;82.04
3812;BME280;1921;49.368;11.068;2023-04-01T18:02:41;96472.78;;;10.40;83.20
3812;BME280;1921;49.368;11.068;2023-04-01T18:05:30;96526.44;;;10.74;82.58
3812;BME280;1921;49.368;11.068;2023-04-01T18:08:12;96527.03;;;10.76;82.09
3812;BME280;1921;49.368;11.068;2023-04-01T18:13:51;96531.47;;;10.76;81.15
3812;BME280;1921;49.368;11.068;2023-04-01T18:16:42;96536.69;;;10.69;81.50
3812;BME280;1921;49.368;11.068;2023-04-01T18:22:45;96533.31;;;10.62;83.15
3812;BME280;1921;49.368;11.068;2023-04-01T18:25:37;96529.09;;;10.55;82.74
3812;BME280;1921;49.368;11.068;2023-04-01T18:28:36;96533.28;;;10.49;83.27
3812;BME280;1921;49.368;11.068;2023-04-01T18:39:37;96527.53;;;10.34;84.05
3812;BME280;1921;49.368;11.068;2023-04-01T18:45:21;96558.56;;;10.48;85.02
3812;BME280;1921;49.368;11.068;2023-04-01T18:50:58;96525.31;;;10.37;84.60
3812;BME280;1921;49.368;11.068;2023-04-01T18:53:48;96556.75;;;10.62;84.14
3812;BME280;1921;49.368;11.068;2023-04-01T18:56:35;96569.78;;;10.42;84.90
3812;BME280;1921;49.368;11.068;2023-04-01T18:59:10;96566.59;;;10.54;85.01
3812;BME280;1921;49.368;11.068;2023-04-01T19:16:16;96596.66;;;10.63;84.50
3812;BME280;1921;49.368;11.068;2023-04-01T19:24:24;96596.66;;;10.63;85.01
3812;BME280;1921;49.368;11.068;2023-04-01T19:27:42;96608.69;;;10.64;85.24
3812;BME280;1921;49.368;11.068;2023-04-01T19:30:26;96604.88;;;10.60;85.33
3812;BME280;1921;49.368;11.068;2023-04-01T19:33:20;96489.84;;;9.83;85.76
3812;BME280;1921;49.368;11.068;2023-04-01T19:38:55;96554.16;;;10.22;85.68
3812;BME280;1921;49.368;11.068;2023-04-01T19:41:46;96608.28;;;10.67;85.76
3812;BME280;1921;49.368;11.068;2023-04-01T19:46:56;96611.69;;;10.47;86.38
3812;BME280;1921;49.368;11.068;2023-04-01T19:52:39;96483.63;;;9.58;86.20
3812;BME280;1921;49.368;11.068;2023-04-01T19:55:39;96616.31;;;10.52;85.78
3812;BME280;1921;49.368;11.068;2023-04-01T19:58:41;96614.91;;;10.69;84.94
3812;BME280;1921;49.368;11.068;2023-04-01T20:01:33;96598.66;;;10.54;85.26
3812;BME280;1921;49.368;11.068;2023-04-01T20:07:14;96574.84;;;10.44;84.83
3812;BME280;1921;49.368;11.068;2023-04-01T20:12:42;96624.13;;;10.72;84.44
3812;BME280;1921;49.368;11.068;2023-04-01T20:15:30;96594.66;;;10.51;84.08
3812;BME280;1921;49.368;11.068;2023-04-01T20:18:01;96565.81;;;10.33;84.15
3812;BME280;1921;49.368;11.068;2023-04-01T20:20:30;96584.25;;;10.38;84.44
3812;BME280;1921;49.368;11.068;2023-04-01T20:23:27;96630.94;;;10.60;84.02
3812;BME280;1921;49.368;11.068;2023-04-01T20:26:04;96643.97;;;10.33;85.80
3812;BME280;1921;49.368;11.068;2023-04-01T20:31:40;96645.00;;;10.45;86.39
3812;BME280;1921;49.368;11.068;2023-04-01T20:34:27;96631.53;;;10.29;86.60
3812;BME280;1921;49.368;11.068;2023-04-01T20:45:17;96649.19;;;10.46;86.11
3812;BME280;1921;49.368;11.068;2023-04-01T20:51:06;96632.31;;;10.16;87.32
3812;BME280;1921;49.368;11.068;2023-04-01T20:57:14;96645.91;;;10.11;87.89
3812;BME280;1921;49.368;11.068;2023-04-01T21:08:49;96665.16;;;10.17;88.17
3812;BME280;1921;49.368;11.068;2023-04-01T21:32:56;96634.06;;;9.95;85.98
3812;BME280;1921;49.368;11.068;2023-04-01T21:35:58;96681.28;;;10.34;85.95
3812;BME280;1921;49.368;11.068;2023-04-01T21:41:34;96615.63;;;9.84;85.32
3812;BME280;1921;49.368;11.068;2023-04-01T21:44:26;96639.88;;;9.97;84.80
3812;BME280;1921;49.368;11.068;2023-04-01T21:47:22;96651.50;;;9.95;84.63
3812;BME280;1921;49.368;11.068;2023-04-01T21:59:22;96710.22;;;10.04;83.52
3812;BME280;1921;49.368;11.068;2023-04-01T22:02:13;96715.34;;;10.26;83.84
3812;BME280;1921;49.368;11.068;2023-04-01T22:13:17;96701.91;;;10.29;82.60
3812;BME280;1921;49.368;11.068;2023-04-01T22:15:54;96676.56;;;10.03;83.48
3812;BME280;1921;49.368;11.068;2023-04-01T22:21:38;96728.97;;;10.34;82.72
3812;BME280;1921;49.368;11.068;2023-04-01T22:24:48;96730.78;;;10.27;82.59
3812;BME280;1921;49.368;11.068;2023-04-01T22:27:46;96732.56;;;10.27;83.47
3812;BME280;1921;49.368;11.068;2023-04-01T22:30:20;96734.97;;;10.28;83.12
3812;BME280;1921;49.368;11.068;2023-04-01T22:33:12;96721.69;;;10.16;83.01
3812;BME280;1921;49.368;11.068;2023-04-01T22:51:00;96748.22;;;10.33;83.35
3812;BME280;1921;49.368;11.068;2023-04-01T22:56:40;96737.78;;;10.27;83.89
3812;BME280;1921;49.368;11.068;2023-04-01T23:02:09;96732.78;;;10.25;83.78
3812;BME280;1921;49.368;11.068;2023-04-01T23:04:41;96721.09;;;10.14;83.60
3812;BME280;1921;49.368;11.068;2023-04-01T23:07:51;96678.66;;;9.73;85.06
3812;BME280;1921;49.368;11.068;2023-04-01T23:10:43;96679.66;;;9.65;85.85
3812;BME280;1921;49.368;11.068;2023-04-01T23:13:19;96762.97;;;10.13;87.00
3812;BME280;1921;49.368;11.068;2023-04-01T23:15:48;96733.41;;;9.92;86.66